Observations for Trim Patrick St
| Time | AQI | Temp °C | Hum % | Pres Pa | CO μg/m³ | H₂S μg/m³ | NO μg/m³ | NO₂ μg/m³ | O₃ μg/m³ | SO₂ μg/m³ | PM1 μg/m³ | PM2.5 μg/m³ | PM10 μg/m³ |
|---|---|---|---|---|---|---|---|---|---|---|---|---|---|
| Wednesday 5 August 2026 | |||||||||||||
| 03:41 | 2 | 15.6 | 75 | 38,460 | 0.1 | 0 | 2.56 | 10.08 | 50.87 | 0 | 2 | 4.84 | 5.32 |
| 03:40 | 2 | 15.6 | 75 | 38,460 | 0.11 | 0 | 2.5 | 8.74 | 49.05 | 0 | 2 | 4.82 | 5.3 |
| 03:39 | 2 | 15.6 | 75 | 38,460 | 0.11 | 0.28 | 2.63 | 12.04 | 64.39 | 0 | 2 | 4.86 | 5.34 |
| 03:38 | 2 | 15.6 | 75 | 38,460 | 0.11 | 0 | 2.6 | 9.33 | 50.11 | 0 | 2 | 4.85 | 5.33 |
| 03:37 | 2 | 15.6 | 74 | 38,460 | 0.11 | 0 | 2.65 | 10.66 | 59.99 | 0 | 2 | 5.6 | 6.16 |
| 03:36 | 2 | 15.6 | 74 | 38,460 | 0.12 | 0 | 2.72 | 10.62 | 53.71 | 0 | 2 | 5.61 | 6.17 |
| 03:35 | 2 | 15.6 | 74 | 38,460 | 0.12 | 0.31 | 2.61 | 10.95 | 58.12 | 0 | 2 | 4.89 | 5.38 |
| 03:31 | 2 | 15.6 | 74 | 38,460 | 0.12 | 0.25 | 2.51 | 11.44 | 60.05 | 0 | 2 | 4.87 | 5.35 |
| 03:30 | 2 | 15.6 | 75 | 38,460 | 0.13 | 0.36 | 2.5 | 12.33 | 57.92 | 0 | 2 | 4.85 | 5.33 |
| 03:27 | 2 | 15.6 | 74 | 38,460 | 0.12 | 0 | 2.65 | 10.65 | 51.4 | 0 | 2 | 4.89 | 5.38 |
| 03:26 | 2 | 15.7 | 74 | 38,460 | 0.1 | 0 | 2.55 | 10.72 | 61.81 | 0 | 2 | 4.87 | 5.35 |
| 03:25 | 2 | 15.7 | 74 | 38,460 | 0.11 | 0 | 2.64 | 9.77 | 53.43 | 0 | 2 | 4.87 | 5.36 |
| 03:24 | 2 | 15.7 | 74 | 38,460 | 0.09 | 0 | 2.67 | 7.75 | 50.74 | 0 | 2 | 4.89 | 5.38 |
| 03:23 | 2 | 15.7 | 74 | 38,460 | 0.1 | 0 | 2.67 | 9.76 | 50.36 | 0 | 2 | 4.88 | 5.37 |
| 03:22 | 2 | 15.7 | 74 | 38,460 | 0.1 | 0 | 2.6 | 8.8 | 49.82 | 0 | 2 | 4.9 | 5.39 |
| 03:21 | 2 | 15.7 | 74 | 38,460 | 0.1 | 0 | 2.57 | 10.4 | 59.9 | 0 | 2 | 4.91 | 5.4 |
| 03:20 | 2 | 15.7 | 74 | 38,460 | 0.1 | 0 | 2.54 | 10.2 | 59.89 | 0 | 2 | 4.92 | 5.42 |
| 03:19 | 2 | 15.7 | 74 | 38,460 | 0.1 | 0 | 2.46 | 9.4 | 52.21 | 0 | 2 | 4.87 | 5.36 |
| 03:18 | 2 | 15.7 | 74 | 38,460 | 0.08 | 0 | 2.48 | 9.57 | 56.97 | 0 | 2 | 4.89 | 5.38 |
| 03:17 | 2 | 15.7 | 74 | 38,460 | 0.08 | 0 | 2.51 | 9.73 | 53.07 | 0 | 2 | 4.9 | 5.39 |